createdAt,value
2023-01-29T00:02:17.167Z,81.33
2023-01-29T00:10:40.236Z,80.84
2023-01-29T00:19:04.191Z,80.40
2023-01-29T00:27:27.129Z,79.77
2023-01-29T00:35:49.973Z,79.12
2023-01-29T00:44:31.361Z,78.48
2023-01-29T00:52:54.741Z,78.82
2023-01-29T01:01:17.809Z,77.94
2023-01-29T01:09:59.354Z,77.18
2023-01-29T01:18:22.524Z,76.94
2023-01-29T01:26:45.359Z,77.06
2023-01-29T01:35:13.781Z,77.58
2023-01-29T01:44:03.066Z,76.57
2023-01-29T01:52:26.199Z,76.23
2023-01-29T02:00:49.334Z,76.83
2023-01-29T02:09:39.049Z,77.37
2023-01-29T02:18:03.147Z,77.58
2023-01-29T02:26:39.346Z,77.46
2023-01-29T02:35:29.978Z,77.20
2023-01-29T02:44:07.691Z,77.31
2023-01-29T02:52:37.905Z,77.11
2023-01-29T03:01:09.305Z,76.51
2023-01-29T03:09:44.679Z,75.87
2023-01-29T03:18:14.263Z,75.69
2023-01-29T03:26:55.621Z,76.32
2023-01-29T03:35:36.722Z,75.63
2023-01-29T03:44:06.496Z,75.38
2023-01-29T03:52:41.984Z,77.17
2023-01-29T04:01:18.581Z,76.88
2023-01-29T04:09:56.382Z,77.32
2023-01-29T04:18:19.487Z,77.93
2023-01-29T04:27:12.929Z,77.54
2023-01-29T04:36:00.181Z,77.13
2023-01-29T04:44:32.229Z,77.09
2023-01-29T04:53:12.068Z,77.19
2023-01-29T05:01:35.741Z,77.87
2023-01-29T05:10:00.560Z,78.22
2023-01-29T05:18:24.541Z,78.76
2023-01-29T05:27:08.538Z,78.92
2023-01-29T05:35:31.964Z,79.23
2023-01-29T05:43:55.106Z,79.45
2023-01-29T05:52:18.136Z,80.16
2023-01-29T06:00:41.203Z,80.73
2023-01-29T06:09:04.531Z,80.79
2023-01-29T06:17:28.865Z,80.49
2023-01-29T06:25:51.714Z,80.91
2023-01-29T06:34:14.669Z,81.22
2023-01-29T06:42:37.571Z,81.27
2023-01-29T06:51:05.850Z,81.33
2023-01-29T06:59:30.170Z,80.79
2023-01-29T07:07:53.471Z,80.78
2023-01-29T07:16:16.595Z,80.70
2023-01-29T07:24:40.153Z,80.52
2023-01-29T07:33:09.108Z,79.87
2023-01-29T07:41:32.217Z,79.61
2023-01-29T07:49:56.514Z,79.81
2023-01-29T07:58:19.862Z,78.96
2023-01-29T08:06:44.757Z,77.90
2023-01-29T08:15:08.652Z,77.33
2023-01-29T08:23:32.178Z,77.10
2023-01-29T08:31:55.822Z,76.85
2023-01-29T08:40:19.039Z,76.53
2023-01-29T08:48:42.273Z,76.21
2023-01-29T08:57:05.173Z,76.18
2023-01-29T09:05:29.075Z,74.73
2023-01-29T09:13:52.404Z,74.35
2023-01-29T09:22:16.871Z,74.49
2023-01-29T09:30:40.865Z,73.86
2023-01-29T09:39:03.900Z,73.24
2023-01-29T09:47:28.201Z,72.40
2023-01-29T09:55:59.981Z,71.31
2023-01-29T10:04:49.750Z,71.20
2023-01-29T10:13:20.091Z,70.22
2023-01-29T10:21:50.818Z,69.79
2023-01-29T10:30:25.893Z,70.30
2023-01-29T10:38:51.129Z,69.19
2023-01-29T10:47:23.204Z,69.47
2023-01-29T10:55:55.360Z,69.00
2023-01-29T11:04:19.598Z,69.91
2023-01-29T11:12:43.980Z,70.07
2023-01-29T11:21:08.979Z,70.91
2023-01-29T11:29:51.357Z,71.68
2023-01-29T11:38:15.955Z,72.29
2023-01-29T11:46:40.422Z,72.98
2023-01-29T11:55:17.432Z,73.37
2023-01-29T12:03:45.051Z,73.57
2023-01-29T12:12:26.791Z,74.25
2023-01-29T12:20:59.072Z,75.24
2023-01-29T12:29:44.458Z,76.43
2023-01-29T12:38:27.046Z,76.90
2023-01-29T12:46:56.858Z,76.77
2023-01-29T12:55:24.884Z,77.00
2023-01-29T13:03:59.586Z,77.19
2023-01-29T13:12:24.579Z,77.29
2023-01-29T13:20:49.729Z,78.28
2023-01-29T13:29:24.525Z,79.33
2023-01-29T13:37:53.879Z,79.87
2023-01-29T13:46:21.565Z,80.38
2023-01-29T13:55:06.823Z,81.04
2023-01-29T14:03:35.912Z,81.49
2023-01-29T14:12:21.957Z,82.73
2023-01-29T14:20:47.925Z,83.55
2023-01-29T14:29:21.504Z,84.72
2023-01-29T14:37:56.488Z,84.98
2023-01-29T14:46:35.436Z,85.56
2023-01-29T14:55:01.765Z,87.60
2023-01-29T15:03:45.727Z,88.07
2023-01-29T15:12:20.988Z,89.02
2023-01-29T15:20:44.684Z,90.13
2023-01-29T15:29:24.951Z,91.85
2023-01-29T15:37:59.403Z,93.28
2023-01-29T15:46:27.188Z,96.29
2023-01-29T15:54:51.592Z,96.00
2023-01-29T16:03:16.026Z,96.23
2023-01-29T16:11:40.363Z,96.30
2023-01-29T16:20:07.599Z,96.71
2023-01-29T16:28:31.043Z,96.45
2023-01-29T16:36:55.555Z,96.32
2023-01-29T16:45:28.423Z,96.04
2023-01-29T16:54:12.425Z,96.80
2023-01-29T17:02:39.606Z,97.06
2023-01-29T17:11:03.597Z,97.40
2023-01-29T17:19:27.203Z,99.37
2023-01-29T17:27:53.394Z,100.00
2023-01-29T17:36:18.253Z,100.00
2023-01-29T17:44:44.010Z,100.00
2023-01-29T17:53:09.112Z,100.00
2023-01-29T18:01:33.041Z,100.00
2023-01-29T18:10:00.583Z,100.00
2023-01-29T18:18:29.075Z,100.00
2023-01-29T18:26:54.259Z,100.00
2023-01-29T18:35:19.869Z,100.00
2023-01-29T18:43:44.677Z,100.00
2023-01-29T18:52:08.903Z,100.00
2023-01-29T19:00:35.634Z,100.00
2023-01-29T19:08:59.182Z,100.00
2023-01-29T19:17:26.805Z,100.00
2023-01-29T19:25:49.967Z,100.00
2023-01-29T19:34:16.021Z,99.93
2023-01-29T19:42:39.885Z,99.67
2023-01-29T19:51:08.407Z,99.69
2023-01-29T19:59:32.505Z,99.45
2023-01-29T20:07:55.584Z,99.56
2023-01-29T20:16:20.379Z,99.82
2023-01-29T20:24:44.163Z,99.92
2023-01-29T20:33:07.826Z,100.00
2023-01-29T20:41:30.824Z,100.00
2023-01-29T20:49:53.786Z,100.00
2023-01-29T20:58:17.338Z,100.00
2023-01-29T21:06:44.840Z,99.94
2023-01-29T21:15:11.792Z,99.75
2023-01-29T21:23:34.756Z,99.83
2023-01-29T21:31:58.128Z,99.64
2023-01-29T21:40:21.531Z,99.68
2023-01-29T21:48:44.773Z,99.77
2023-01-29T21:57:12.369Z,99.65
2023-01-29T22:05:40.530Z,99.88
2023-01-29T22:14:03.701Z,99.97
2023-01-29T22:22:26.958Z,99.98
2023-01-29T22:30:49.907Z,100.00
2023-01-29T22:39:13.572Z,100.00
2023-01-29T22:47:36.549Z,100.00
2023-01-29T22:55:59.855Z,100.00
2023-01-29T23:04:23.235Z,100.00
2023-01-29T23:12:46.158Z,100.00
2023-01-29T23:21:09.739Z,100.00
2023-01-29T23:29:32.759Z,100.00
2023-01-29T23:37:57.388Z,100.00
2023-01-29T23:46:20.406Z,100.00
2023-01-29T23:54:43.542Z,100.00
